sensor_id;sensor_type;location;lat;lon;timestamp;temperature;humidity
19952;DHT22;10137;49.406;19.484;2023-07-16T00:01:00;19.40;99.90
19952;DHT22;10137;49.406;19.484;2023-07-16T00:03:27;19.30;99.90
19952;DHT22;10137;49.406;19.484;2023-07-16T00:05:54;19.20;99.90
19952;DHT22;10137;49.406;19.484;2023-07-16T00:08:23;19.20;99.90
19952;DHT22;10137;49.406;19.484;2023-07-16T00:10:50;19.20;99.90
19952;DHT22;10137;49.406;19.484;2023-07-16T00:13:17;19.10;99.90
19952;DHT22;10137;49.406;19.484;2023-07-16T00:15:44;19.10;99.90
19952;DHT22;10137;49.406;19.484;2023-07-16T00:18:11;19.10;99.90
19952;DHT22;10137;49.406;19.484;2023-07-16T00:20:37;19.00;99.90
19952;DHT22;10137;49.406;19.484;2023-07-16T00:23:04;19.00;99.90
19952;DHT22;10137;49.406;19.484;2023-07-16T00:25:33;19.00;99.90
19952;DHT22;10137;49.406;19.484;2023-07-16T00:28:00;19.00;99.90
19952;DHT22;10137;49.406;19.484;2023-07-16T00:30:28;19.00;99.90
19952;DHT22;10137;49.406;19.484;2023-07-16T00:32:55;18.90;99.90
19952;DHT22;10137;49.406;19.484;2023-07-16T00:35:22;18.90;99.90
19952;DHT22;10137;49.406;19.484;2023-07-16T00:37:49;18.90;99.90
19952;DHT22;10137;49.406;19.484;2023-07-16T00:40:16;18.80;99.90
19952;DHT22;10137;49.406;19.484;2023-07-16T00:42:44;18.80;99.90
19952;DHT22;10137;49.406;19.484;2023-07-16T00:45:12;18.80;99.90
19952;DHT22;10137;49.406;19.484;2023-07-16T00:47:41;18.70;99.90
19952;DHT22;10137;49.406;19.484;2023-07-16T00:50:09;18.70;99.90
19952;DHT22;10137;49.406;19.484;2023-07-16T00:52:37;18.70;99.90
19952;DHT22;10137;49.406;19.484;2023-07-16T00:55:06;18.60;99.90
19952;DHT22;10137;49.406;19.484;2023-07-16T00:57:34;18.60;99.90
19952;DHT22;10137;49.406;19.484;2023-07-16T01:00:04;18.50;99.90
19952;DHT22;10137;49.406;19.484;2023-07-16T01:02:31;18.40;99.90
19952;DHT22;10137;49.406;19.484;2023-07-16T01:04:58;18.20;99.90
19952;DHT22;10137;49.406;19.484;2023-07-16T01:07:27;18.30;99.90
19952;DHT22;10137;49.406;19.484;2023-07-16T01:09:56;18.30;99.90
19952;DHT22;10137;49.406;19.484;2023-07-16T01:12:23;18.30;99.90
19952;DHT22;10137;49.406;19.484;2023-07-16T01:14:51;18.30;99.90
19952;DHT22;10137;49.406;19.484;2023-07-16T01:17:20;18.40;99.90
19952;DHT22;10137;49.406;19.484;2023-07-16T01:19:47;18.30;99.90
19952;DHT22;10137;49.406;19.484;2023-07-16T01:22:31;18.40;99.90
19952;DHT22;10137;49.406;19.484;2023-07-16T01:25:31;18.30;99.90
19952;DHT22;10137;49.406;19.484;2023-07-16T01:28:35;18.20;99.90
19952;DHT22;10137;49.406;19.484;2023-07-16T01:31:06;18.10;99.90
19952;DHT22;10137;49.406;19.484;2023-07-16T01:33:34;18.10;99.90
19952;DHT22;10137;49.406;19.484;2023-07-16T01:36:02;18.00;99.90
19952;DHT22;10137;49.406;19.484;2023-07-16T01:38:29;18.00;99.90
19952;DHT22;10137;49.406;19.484;2023-07-16T01:40:56;18.00;99.90
19952;DHT22;10137;49.406;19.484;2023-07-16T01:43:23;18.00;99.90
19952;DHT22;10137;49.406;19.484;2023-07-16T01:45:50;18.00;99.90
19952;DHT22;10137;49.406;19.484;2023-07-16T01:48:27;18.00;99.90
19952;DHT22;10137;49.406;19.484;2023-07-16T01:50:55;17.90;99.90
19952;DHT22;10137;49.406;19.484;2023-07-16T01:53:22;17.90;99.90
19952;DHT22;10137;49.406;19.484;2023-07-16T01:55:49;17.90;99.90
19952;DHT22;10137;49.406;19.484;2023-07-16T01:58:16;17.90;99.90
19952;DHT22;10137;49.406;19.484;2023-07-16T02:00:43;17.90;99.90
19952;DHT22;10137;49.406;19.484;2023-07-16T02:03:11;17.90;99.90
19952;DHT22;10137;49.406;19.484;2023-07-16T02:05:39;17.90;99.90
19952;DHT22;10137;49.406;19.484;2023-07-16T02:08:06;17.90;99.90
19952;DHT22;10137;49.406;19.484;2023-07-16T02:10:33;17.80;99.90
19952;DHT22;10137;49.406;19.484;2023-07-16T02:13:00;17.70;99.90
19952;DHT22;10137;49.406;19.484;2023-07-16T02:15:28;17.70;99.90
19952;DHT22;10137;49.406;19.484;2023-07-16T02:17:55;17.60;99.90
19952;DHT22;10137;49.406;19.484;2023-07-16T02:20:22;17.60;99.90
19952;DHT22;10137;49.406;19.484;2023-07-16T02:22:50;17.60;99.90
19952;DHT22;10137;49.406;19.484;2023-07-16T02:25:17;17.60;99.90
19952;DHT22;10137;49.406;19.484;2023-07-16T02:27:44;17.50;99.90
19952;DHT22;10137;49.406;19.484;2023-07-16T02:30:11;17.50;99.90
19952;DHT22;10137;49.406;19.484;2023-07-16T02:32:38;17.50;99.90
19952;DHT22;10137;49.406;19.484;2023-07-16T02:35:06;17.40;99.90
19952;DHT22;10137;49.406;19.484;2023-07-16T02:37:33;17.30;99.90
19952;DHT22;10137;49.406;19.484;2023-07-16T02:40:02;17.30;99.90
19952;DHT22;10137;49.406;19.484;2023-07-16T02:42:29;17.30;99.90
19952;DHT22;10137;49.406;19.484;2023-07-16T02:44:56;17.30;99.90
19952;DHT22;10137;49.406;19.484;2023-07-16T02:47:23;17.40;99.90
19952;DHT22;10137;49.406;19.484;2023-07-16T02:49:51;17.30;99.90
19952;DHT22;10137;49.406;19.484;2023-07-16T02:52:18;17.40;99.90
19952;DHT22;10137;49.406;19.484;2023-07-16T02:54:45;17.30;99.90
19952;DHT22;10137;49.406;19.484;2023-07-16T02:57:13;17.30;99.90
19952;DHT22;10137;49.406;19.484;2023-07-16T02:59:40;17.30;99.90
19952;DHT22;10137;49.406;19.484;2023-07-16T03:02:07;17.20;99.90
19952;DHT22;10137;49.406;19.484;2023-07-16T03:04:34;17.20;99.90
19952;DHT22;10137;49.406;19.484;2023-07-16T03:07:01;17.20;99.90
19952;DHT22;10137;49.406;19.484;2023-07-16T03:09:28;17.20;99.90
19952;DHT22;10137;49.406;19.484;2023-07-16T03:11:55;17.10;99.90
19952;DHT22;10137;49.406;19.484;2023-07-16T03:14:23;17.10;99.90
19952;DHT22;10137;49.406;19.484;2023-07-16T03:16:50;17.10;99.90
19952;DHT22;10137;49.406;19.484;2023-07-16T03:19:17;17.10;99.90
19952;DHT22;10137;49.406;19.484;2023-07-16T03:21:44;17.00;99.90
19952;DHT22;10137;49.406;19.484;2023-07-16T03:24:11;17.10;99.90
19952;DHT22;10137;49.406;19.484;2023-07-16T03:26:38;17.00;99.90
19952;DHT22;10137;49.406;19.484;2023-07-16T03:29:05;17.10;99.90
19952;DHT22;10137;49.406;19.484;2023-07-16T03:31:34;17.00;99.90
19952;DHT22;10137;49.406;19.484;2023-07-16T03:34:00;17.10;99.90
19952;DHT22;10137;49.406;19.484;2023-07-16T03:36:27;17.00;99.90
19952;DHT22;10137;49.406;19.484;2023-07-16T03:38:54;17.00;99.90
19952;DHT22;10137;49.406;19.484;2023-07-16T03:41:21;17.00;99.90
19952;DHT22;10137;49.406;19.484;2023-07-16T03:43:48;17.10;99.90
19952;DHT22;10137;49.406;19.484;2023-07-16T03:46:15;17.10;99.90
19952;DHT22;10137;49.406;19.484;2023-07-16T03:48:44;17.10;99.90
19952;DHT22;10137;49.406;19.484;2023-07-16T03:51:11;17.20;99.90
19952;DHT22;10137;49.406;19.484;2023-07-16T03:53:38;17.20;99.90
19952;DHT22;10137;49.406;19.484;2023-07-16T03:56:05;17.30;99.90
19952;DHT22;10137;49.406;19.484;2023-07-16T03:58:32;17.30;99.90
19952;DHT22;10137;49.406;19.484;2023-07-16T04:00:59;17.30;99.90
19952;DHT22;10137;49.406;19.484;2023-07-16T04:03:26;17.40;99.90
19952;DHT22;10137;49.406;19.484;2023-07-16T04:06:04;17.40;99.90
19952;DHT22;10137;49.406;19.484;2023-07-16T04:08:31;17.40;99.90
19952;DHT22;10137;49.406;19.484;2023-07-16T04:10:58;17.40;99.90
19952;DHT22;10137;49.406;19.484;2023-07-16T04:13:25;17.50;99.90
19952;DHT22;10137;49.406;19.484;2023-07-16T04:15:52;17.50;99.90
19952;DHT22;10137;49.406;19.484;2023-07-16T04:18:21;17.50;99.90
19952;DHT22;10137;49.406;19.484;2023-07-16T04:20:48;17.50;99.90
19952;DHT22;10137;49.406;19.484;2023-07-16T04:23:16;17.50;99.90
19952;DHT22;10137;49.406;19.484;2023-07-16T04:25:43;17.60;99.90
19952;DHT22;10137;49.406;19.484;2023-07-16T04:28:10;17.60;99.90
19952;DHT22;10137;49.406;19.484;2023-07-16T04:30:37;17.60;99.90
19952;DHT22;10137;49.406;19.484;2023-07-16T04:33:04;17.70;99.90
19952;DHT22;10137;49.406;19.484;2023-07-16T04:35:32;17.70;99.90
19952;DHT22;10137;49.406;19.484;2023-07-16T04:37:59;17.80;99.90
19952;DHT22;10137;49.406;19.484;2023-07-16T04:40:29;17.80;99.90
19952;DHT22;10137;49.406;19.484;2023-07-16T04:42:56;17.80;99.90
19952;DHT22;10137;49.406;19.484;2023-07-16T04:45:23;17.80;99.90
19952;DHT22;10137;49.406;19.484;2023-07-16T04:47:49;18.00;99.90
19952;DHT22;10137;49.406;19.484;2023-07-16T04:50:16;18.00;99.90
19952;DHT22;10137;49.406;19.484;2023-07-16T04:52:44;18.20;99.90
19952;DHT22;10137;49.406;19.484;2023-07-16T04:55:11;18.30;99.90
19952;DHT22;10137;49.406;19.484;2023-07-16T04:57:40;18.30;99.90
19952;DHT22;10137;49.406;19.484;2023-07-16T05:00:07;18.40;99.90
19952;DHT22;10137;49.406;19.484;2023-07-16T05:02:35;18.50;99.90
19952;DHT22;10137;49.406;19.484;2023-07-16T05:05:02;18.60;99.90
19952;DHT22;10137;49.406;19.484;2023-07-16T05:07:29;18.70;99.90
19952;DHT22;10137;49.406;19.484;2023-07-16T05:09:56;18.80;99.90
19952;DHT22;10137;49.406;19.484;2023-07-16T05:12:23;18.90;99.90
19952;DHT22;10137;49.406;19.484;2023-07-16T05:14:51;19.00;99.90
19952;DHT22;10137;49.406;19.484;2023-07-16T05:17:18;19.10;99.90
19952;DHT22;10137;49.406;19.484;2023-07-16T05:19:45;19.10;99.90
19952;DHT22;10137;49.406;19.484;2023-07-16T05:22:12;19.20;99.90
19952;DHT22;10137;49.406;19.484;2023-07-16T05:24:39;19.30;99.90
19952;DHT22;10137;49.406;19.484;2023-07-16T05:27:06;19.40;99.90
19952;DHT22;10137;49.406;19.484;2023-07-16T05:29:33;19.60;99.90
19952;DHT22;10137;49.406;19.484;2023-07-16T05:32:01;19.80;99.90
19952;DHT22;10137;49.406;19.484;2023-07-16T05:34:29;20.00;99.90
19952;DHT22;10137;49.406;19.484;2023-07-16T05:36:56;20.10;99.90
19952;DHT22;10137;49.406;19.484;2023-07-16T05:39:23;20.20;99.90
19952;DHT22;10137;49.406;19.484;2023-07-16T05:41:49;20.30;99.90
19952;DHT22;10137;49.406;19.484;2023-07-16T05:44:16;20.50;99.90
19952;DHT22;10137;49.406;19.484;2023-07-16T05:46:43;20.50;99.90
19952;DHT22;10137;49.406;19.484;2023-07-16T05:49:12;20.60;99.90
19952;DHT22;10137;49.406;19.484;2023-07-16T05:51:38;20.70;99.90
19952;DHT22;10137;49.406;19.484;2023-07-16T05:54:05;20.90;99.90
19952;DHT22;10137;49.406;19.484;2023-07-16T05:56:33;20.90;99.90
19952;DHT22;10137;49.406;19.484;2023-07-16T05:59:00;21.00;99.90
19952;DHT22;10137;49.406;19.484;2023-07-16T06:01:26;21.10;99.90
19952;DHT22;10137;49.406;19.484;2023-07-16T06:03:53;21.20;99.90
19952;DHT22;10137;49.406;19.484;2023-07-16T06:06:22;21.30;99.90
19952;DHT22;10137;49.406;19.484;2023-07-16T06:08:49;21.40;99.90
19952;DHT22;10137;49.406;19.484;2023-07-16T06:11:15;21.50;99.90
19952;DHT22;10137;49.406;19.484;2023-07-16T06:13:42;21.90;99.90
19952;DHT22;10137;49.406;19.484;2023-07-16T06:16:09;22.00;99.90
19952;DHT22;10137;49.406;19.484;2023-07-16T06:18:36;22.10;99.90
19952;DHT22;10137;49.406;19.484;2023-07-16T06:21:03;22.10;99.90
19952;DHT22;10137;49.406;19.484;2023-07-16T06:23:31;22.10;99.90
19952;DHT22;10137;49.406;19.484;2023-07-16T06:25:58;22.20;99.90
19952;DHT22;10137;49.406;19.484;2023-07-16T06:28:25;22.20;99.90
19952;DHT22;10137;49.406;19.484;2023-07-16T06:30:52;22.30;99.90
19952;DHT22;10137;49.406;19.484;2023-07-16T06:33:19;22.50;99.90
19952;DHT22;10137;49.406;19.484;2023-07-16T06:35:46;22.80;99.90
19952;DHT22;10137;49.406;19.484;2023-07-16T06:38:14;23.00;99.90
19952;DHT22;10137;49.406;19.484;2023-07-16T06:40:47;23.10;99.90
19952;DHT22;10137;49.406;19.484;2023-07-16T06:43:14;23.20;99.90
19952;DHT22;10137;49.406;19.484;2023-07-16T06:45:41;23.40;99.90
19952;DHT22;10137;49.406;19.484;2023-07-16T06:48:08;23.40;99.90
19952;DHT22;10137;49.406;19.484;2023-07-16T06:50:35;23.40;99.90
19952;DHT22;10137;49.406;19.484;2023-07-16T06:53:02;23.50;99.90
19952;DHT22;10137;49.406;19.484;2023-07-16T06:55:29;23.50;99.90
19952;DHT22;10137;49.406;19.484;2023-07-16T06:57:57;23.60;99.90
19952;DHT22;10137;49.406;19.484;2023-07-16T07:00:25;23.70;99.90
19952;DHT22;10137;49.406;19.484;2023-07-16T07:02:52;23.90;99.90
19952;DHT22;10137;49.406;19.484;2023-07-16T07:05:18;24.20;99.90
19952;DHT22;10137;49.406;19.484;2023-07-16T07:07:45;24.50;99.90
19952;DHT22;10137;49.406;19.484;2023-07-16T07:10:13;24.60;99.90
19952;DHT22;10137;49.406;19.484;2023-07-16T07:12:40;24.60;99.90
19952;DHT22;10137;49.406;19.484;2023-07-16T07:15:09;24.60;99.90
19952;DHT22;10137;49.406;19.484;2023-07-16T07:17:36;24.70;99.90
19952;DHT22;10137;49.406;19.484;2023-07-16T07:20:05;24.70;99.90
19952;DHT22;10137;49.406;19.484;2023-07-16T07:22:32;24.90;99.90
19952;DHT22;10137;49.406;19.484;2023-07-16T07:24:59;25.00;99.90
19952;DHT22;10137;49.406;19.484;2023-07-16T07:27:26;25.10;99.90
19952;DHT22;10137;49.406;19.484;2023-07-16T07:29:53;25.20;99.90
19952;DHT22;10137;49.406;19.484;2023-07-16T07:32:22;25.40;99.90
19952;DHT22;10137;49.406;19.484;2023-07-16T07:34:49;25.50;99.90
19952;DHT22;10137;49.406;19.484;2023-07-16T07:37:16;25.50;99.90
19952;DHT22;10137;49.406;19.484;2023-07-16T07:39:43;25.90;99.90
19952;DHT22;10137;49.406;19.484;2023-07-16T07:42:13;26.00;99.90
19952;DHT22;10137;49.406;19.484;2023-07-16T07:44:40;26.20;99.90
19952;DHT22;10137;49.406;19.484;2023-07-16T07:47:07;26.50;99.90
19952;DHT22;10137;49.406;19.484;2023-07-16T07:49:35;26.60;99.90
19952;DHT22;10137;49.406;19.484;2023-07-16T07:52:02;27.10;99.90
19952;DHT22;10137;49.406;19.484;2023-07-16T07:54:31;27.50;99.90
19952;DHT22;10137;49.406;19.484;2023-07-16T07:57:00;27.70;99.90
19952;DHT22;10137;49.406;19.484;2023-07-16T07:59:28;28.00;99.90
19952;DHT22;10137;49.406;19.484;2023-07-16T08:01:55;28.30;99.10
19952;DHT22;10137;49.406;19.484;2023-07-16T08:04:22;28.30;95.80
19952;DHT22;10137;49.406;19.484;2023-07-16T08:06:52;28.40;94.80
19952;DHT22;10137;49.406;19.484;2023-07-16T08:09:20;28.70;94.10
19952;DHT22;10137;49.406;19.484;2023-07-16T08:11:47;28.80;93.00
19952;DHT22;10137;49.406;19.484;2023-07-16T08:14:14;29.00;92.70
19952;DHT22;10137;49.406;19.484;2023-07-16T08:16:41;29.00;90.90
19952;DHT22;10137;49.406;19.484;2023-07-16T08:19:08;29.10;90.60
19952;DHT22;10137;49.406;19.484;2023-07-16T08:21:35;29.20;89.70
19952;DHT22;10137;49.406;19.484;2023-07-16T08:24:05;29.40;90.60
19952;DHT22;10137;49.406;19.484;2023-07-16T08:26:32;29.70;90.20
19952;DHT22;10137;49.406;19.484;2023-07-16T08:28:59;29.70;88.90
19952;DHT22;10137;49.406;19.484;2023-07-16T08:31:26;29.80;90.00
19952;DHT22;10137;49.406;19.484;2023-07-16T08:33:53;29.90;90.10
19952;DHT22;10137;49.406;19.484;2023-07-16T08:36:20;29.90;85.80
19952;DHT22;10137;49.406;19.484;2023-07-16T08:38:47;30.00;86.50
19952;DHT22;10137;49.406;19.484;2023-07-16T08:41:16;30.10;85.50
19952;DHT22;10137;49.406;19.484;2023-07-16T08:43:45;30.20;86.20
19952;DHT22;10137;49.406;19.484;2023-07-16T08:46:13;30.30;83.50
19952;DHT22;10137;49.406;19.484;2023-07-16T08:48:41;30.40;82.60
19952;DHT22;10137;49.406;19.484;2023-07-16T08:51:10;30.40;81.00
19952;DHT22;10137;49.406;19.484;2023-07-16T08:53:37;30.30;78.70
19952;DHT22;10137;49.406;19.484;2023-07-16T08:56:04;30.30;76.40
19952;DHT22;10137;49.406;19.484;2023-07-16T08:58:33;30.20;76.20
19952;DHT22;10137;49.406;19.484;2023-07-16T09:01:01;30.30;76.50
19952;DHT22;10137;49.406;19.484;2023-07-16T09:03:28;30.40;77.80
19952;DHT22;10137;49.406;19.484;2023-07-16T09:05:55;30.50;73.70
19952;DHT22;10137;49.406;19.484;2023-07-16T09:08:22;30.70;72.70
19952;DHT22;10137;49.406;19.484;2023-07-16T09:10:54;30.90;73.20
19952;DHT22;10137;49.406;19.484;2023-07-16T09:13:22;30.80;71.30
19952;DHT22;10137;49.406;19.484;2023-07-16T09:15:54;30.90;68.90
19952;DHT22;10137;49.406;19.484;2023-07-16T09:18:22;30.80;70.40
19952;DHT22;10137;49.406;19.484;2023-07-16T09:20:54;30.90;69.20
19952;DHT22;10137;49.406;19.484;2023-07-16T09:23:24;31.10;69.90
19952;DHT22;10137;49.406;19.484;2023-07-16T09:25:50;31.10;67.90
19952;DHT22;10137;49.406;19.484;2023-07-16T09:28:19;30.90;68.80
19952;DHT22;10137;49.406;19.484;2023-07-16T09:30:46;30.80;68.90
19952;DHT22;10137;49.406;19.484;2023-07-16T09:33:16;30.60;70.40
19952;DHT22;10137;49.406;19.484;2023-07-16T09:35:44;30.80;68.90
19952;DHT22;10137;49.406;19.484;2023-07-16T09:38:11;30.80;67.60
19952;DHT22;10137;49.406;19.484;2023-07-16T09:40:38;30.90;68.30
19952;DHT22;10137;49.406;19.484;2023-07-16T09:43:08;30.70;65.60
19952;DHT22;10137;49.406;19.484;2023-07-16T09:45:36;30.60;66.80
19952;DHT22;10137;49.406;19.484;2023-07-16T09:48:03;30.70;67.30
19952;DHT22;10137;49.406;19.484;2023-07-16T09:50:34;30.60;68.10
19952;DHT22;10137;49.406;19.484;2023-07-16T09:53:01;30.60;67.30
19952;DHT22;10137;49.406;19.484;2023-07-16T09:55:31;30.70;65.60
19952;DHT22;10137;49.406;19.484;2023-07-16T09:58:00;30.60;64.80
19952;DHT22;10137;49.406;19.484;2023-07-16T10:00:28;30.60;66.30
19952;DHT22;10137;49.406;19.484;2023-07-16T10:02:56;30.50;65.30
19952;DHT22;10137;49.406;19.484;2023-07-16T10:05:25;30.60;66.50
19952;DHT22;10137;49.406;19.484;2023-07-16T10:07:56;30.70;65.60
19952;DHT22;10137;49.406;19.484;2023-07-16T10:10:27;30.90;65.00
19952;DHT22;10137;49.406;19.484;2023-07-16T10:13:04;30.90;63.90
19952;DHT22;10137;49.406;19.484;2023-07-16T10:15:31;31.10;66.00
19952;DHT22;10137;49.406;19.484;2023-07-16T10:17:58;31.20;63.80
19952;DHT22;10137;49.406;19.484;2023-07-16T10:20:29;31.00;63.10
19952;DHT22;10137;49.406;19.484;2023-07-16T10:22:58;31.00;64.20
19952;DHT22;10137;49.406;19.484;2023-07-16T10:25:27;31.00;65.70
19952;DHT22;10137;49.406;19.484;2023-07-16T10:27:55;31.10;65.20
19952;DHT22;10137;49.406;19.484;2023-07-16T10:30:22;31.30;67.00
19952;DHT22;10137;49.406;19.484;2023-07-16T10:32:51;31.30;66.40
19952;DHT22;10137;49.406;19.484;2023-07-16T10:35:19;31.40;66.60
19952;DHT22;10137;49.406;19.484;2023-07-16T10:37:46;31.60;63.90
19952;DHT22;10137;49.406;19.484;2023-07-16T10:40:14;31.50;65.70
19952;DHT22;10137;49.406;19.484;2023-07-16T10:42:42;31.70;65.20
19952;DHT22;10137;49.406;19.484;2023-07-16T10:45:10;31.90;64.90
19952;DHT22;10137;49.406;19.484;2023-07-16T10:47:39;31.70;62.60
19952;DHT22;10137;49.406;19.484;2023-07-16T10:50:08;31.50;63.60
19952;DHT22;10137;49.406;19.484;2023-07-16T10:52:36;31.60;62.50
19952;DHT22;10137;49.406;19.484;2023-07-16T10:55:04;31.30;61.20
19952;DHT22;10137;49.406;19.484;2023-07-16T10:57:33;31.30;62.00
19952;DHT22;10137;49.406;19.484;2023-07-16T11:00:00;31.40;64.40
19952;DHT22;10137;49.406;19.484;2023-07-16T11:02:27;31.40;62.30
19952;DHT22;10137;49.406;19.484;2023-07-16T11:04:54;31.30;60.10
19952;DHT22;10137;49.406;19.484;2023-07-16T11:07:23;31.30;59.50
19952;DHT22;10137;49.406;19.484;2023-07-16T11:09:51;31.30;59.80
19952;DHT22;10137;49.406;19.484;2023-07-16T11:12:19;31.40;59.20
19952;DHT22;10137;49.406;19.484;2023-07-16T11:14:49;31.40;59.80
19952;DHT22;10137;49.406;19.484;2023-07-16T11:17:17;31.20;60.00
19952;DHT22;10137;49.406;19.484;2023-07-16T11:19:45;31.30;59.00
19952;DHT22;10137;49.406;19.484;2023-07-16T11:22:13;31.30;58.70
19952;DHT22;10137;49.406;19.484;2023-07-16T11:24:41;31.40;59.50
19952;DHT22;10137;49.406;19.484;2023-07-16T11:27:13;31.40;59.00
19952;DHT22;10137;49.406;19.484;2023-07-16T11:29:44;31.10;57.60
19952;DHT22;10137;49.406;19.484;2023-07-16T11:32:13;31.00;57.60
19952;DHT22;10137;49.406;19.484;2023-07-16T11:34:52;30.90;58.10
19952;DHT22;10137;49.406;19.484;2023-07-16T11:37:20;30.80;59.30
19952;DHT22;10137;49.406;19.484;2023-07-16T11:39:47;30.90;59.20
19952;DHT22;10137;49.406;19.484;2023-07-16T11:42:17;30.80;56.70
19952;DHT22;10137;49.406;19.484;2023-07-16T11:44:49;30.90;57.20
19952;DHT22;10137;49.406;19.484;2023-07-16T11:47:17;30.80;55.60
19952;DHT22;10137;49.406;19.484;2023-07-16T11:49:44;30.80;55.60
19952;DHT22;10137;49.406;19.484;2023-07-16T11:52:11;30.80;56.90
19952;DHT22;10137;49.406;19.484;2023-07-16T11:54:38;30.80;57.40
19952;DHT22;10137;49.406;19.484;2023-07-16T11:57:06;30.90;58.00
19952;DHT22;10137;49.406;19.484;2023-07-16T11:59:33;30.90;57.50
19952;DHT22;10137;49.406;19.484;2023-07-16T12:02:00;31.00;57.30
19952;DHT22;10137;49.406;19.484;2023-07-16T12:04:28;30.90;55.90
19952;DHT22;10137;49.406;19.484;2023-07-16T12:06:55;30.80;54.80
19952;DHT22;10137;49.406;19.484;2023-07-16T12:09:22;30.80;52.90
19952;DHT22;10137;49.406;19.484;2023-07-16T12:11:49;30.80;52.10
19952;DHT22;10137;49.406;19.484;2023-07-16T12:14:16;30.80;53.50
19952;DHT22;10137;49.406;19.484;2023-07-16T12:16:43;30.80;53.30
19952;DHT22;10137;49.406;19.484;2023-07-16T12:19:10;30.90;51.10
19952;DHT22;10137;49.406;19.484;2023-07-16T12:21:39;30.90;52.20
19952;DHT22;10137;49.406;19.484;2023-07-16T12:24:06;30.90;53.70
19952;DHT22;10137;49.406;19.484;2023-07-16T12:26:33;30.90;54.60
19952;DHT22;10137;49.406;19.484;2023-07-16T12:29:00;30.80;52.90
19952;DHT22;10137;49.406;19.484;2023-07-16T12:31:29;30.80;53.60
19952;DHT22;10137;49.406;19.484;2023-07-16T12:33:56;30.70;53.10
19952;DHT22;10137;49.406;19.484;2023-07-16T12:36:24;30.70;53.10
19952;DHT22;10137;49.406;19.484;2023-07-16T12:38:52;30.70;54.10
19952;DHT22;10137;49.406;19.484;2023-07-16T12:41:19;30.80;51.10
19952;DHT22;10137;49.406;19.484;2023-07-16T12:43:46;30.90;52.70
19952;DHT22;10137;49.406;19.484;2023-07-16T12:46:13;30.90;53.10
19952;DHT22;10137;49.406;19.484;2023-07-16T12:48:40;30.90;53.50
19952;DHT22;10137;49.406;19.484;2023-07-16T12:51:07;30.80;52.30
19952;DHT22;10137;49.406;19.484;2023-07-16T12:53:34;30.70;57.00
19952;DHT22;10137;49.406;19.484;2023-07-16T12:56:03;30.50;55.40
19952;DHT22;10137;49.406;19.484;2023-07-16T12:58:30;30.40;54.90
19952;DHT22;10137;49.406;19.484;2023-07-16T13:00:57;30.20;56.10
19952;DHT22;10137;49.406;19.484;2023-07-16T13:03:24;30.10;57.80
19952;DHT22;10137;49.406;19.484;2023-07-16T13:05:50;30.00;57.30
19952;DHT22;10137;49.406;19.484;2023-07-16T13:08:17;30.00;59.70
19952;DHT22;10137;49.406;19.484;2023-07-16T13:10:44;29.90;61.00
19952;DHT22;10137;49.406;19.484;2023-07-16T13:13:13;29.80;61.30
19952;DHT22;10137;49.406;19.484;2023-07-16T13:15:39;29.70;60.30
19952;DHT22;10137;49.406;19.484;2023-07-16T13:18:09;29.70;61.40
19952;DHT22;10137;49.406;19.484;2023-07-16T13:20:37;29.70;60.20
19952;DHT22;10137;49.406;19.484;2023-07-16T13:23:04;29.70;59.30
19952;DHT22;10137;49.406;19.484;2023-07-16T13:25:31;29.70;58.70
19952;DHT22;10137;49.406;19.484;2023-07-16T13:27:57;29.80;60.30
19952;DHT22;10137;49.406;19.484;2023-07-16T13:30:26;29.80;60.20
19952;DHT22;10137;49.406;19.484;2023-07-16T13:32:53;29.80;59.50
19952;DHT22;10137;49.406;19.484;2023-07-16T13:35:21;29.70;59.70
19952;DHT22;10137;49.406;19.484;2023-07-16T13:37:48;29.70;61.50
19952;DHT22;10137;49.406;19.484;2023-07-16T13:40:16;29.80;61.90
19952;DHT22;10137;49.406;19.484;2023-07-16T13:42:45;29.80;65.20
19952;DHT22;10137;49.406;19.484;2023-07-16T13:45:12;29.70;66.10
19952;DHT22;10137;49.406;19.484;2023-07-16T13:47:41;29.70;70.90
19952;DHT22;10137;49.406;19.484;2023-07-16T13:50:09;29.70;65.60
19952;DHT22;10137;49.406;19.484;2023-07-16T13:52:36;29.70;67.10
19952;DHT22;10137;49.406;19.484;2023-07-16T13:55:04;29.70;68.20
19952;DHT22;10137;49.406;19.484;2023-07-16T13:57:31;29.70;62.70
19952;DHT22;10137;49.406;19.484;2023-07-16T13:59:58;29.70;60.80
19952;DHT22;10137;49.406;19.484;2023-07-16T14:02:25;29.70;59.60
19952;DHT22;10137;49.406;19.484;2023-07-16T14:04:54;29.70;60.00
19952;DHT22;10137;49.406;19.484;2023-07-16T14:07:21;29.70;58.40
19952;DHT22;10137;49.406;19.484;2023-07-16T14:09:48;29.70;58.60
19952;DHT22;10137;49.406;19.484;2023-07-16T14:12:15;29.80;59.30
19952;DHT22;10137;49.406;19.484;2023-07-16T14:14:42;29.80;58.60
19952;DHT22;10137;49.406;19.484;2023-07-16T14:17:09;29.90;58.90
19952;DHT22;10137;49.406;19.484;2023-07-16T14:19:36;29.90;57.90
19952;DHT22;10137;49.406;19.484;2023-07-16T14:22:04;29.90;58.20
19952;DHT22;10137;49.406;19.484;2023-07-16T14:24:31;29.90;59.20
19952;DHT22;10137;49.406;19.484;2023-07-16T14:26:58;29.90;60.80
19952;DHT22;10137;49.406;19.484;2023-07-16T14:29:27;29.90;63.30
19952;DHT22;10137;49.406;19.484;2023-07-16T14:31:55;29.90;59.10
19952;DHT22;10137;49.406;19.484;2023-07-16T14:34:22;29.90;60.30
19952;DHT22;10137;49.406;19.484;2023-07-16T14:36:49;30.00;58.90
19952;DHT22;10137;49.406;19.484;2023-07-16T14:39:17;29.90;58.20
19952;DHT22;10137;49.406;19.484;2023-07-16T14:41:44;29.90;58.30
19952;DHT22;10137;49.406;19.484;2023-07-16T14:44:11;29.90;60.70
19952;DHT22;10137;49.406;19.484;2023-07-16T14:46:38;29.90;60.20
19952;DHT22;10137;49.406;19.484;2023-07-16T14:49:05;29.90;63.90
19952;DHT22;10137;49.406;19.484;2023-07-16T14:51:32;30.00;63.60
19952;DHT22;10137;49.406;19.484;2023-07-16T14:54:05;30.20;64.20
19952;DHT22;10137;49.406;19.484;2023-07-16T14:56:33;30.30;64.70
19952;DHT22;10137;49.406;19.484;2023-07-16T14:59:00;30.30;63.50
19952;DHT22;10137;49.406;19.484;2023-07-16T15:01:27;30.30;64.00
19952;DHT22;10137;49.406;19.484;2023-07-16T15:03:54;30.40;60.90
19952;DHT22;10137;49.406;19.484;2023-07-16T15:06:21;30.40;60.50
19952;DHT22;10137;49.406;19.484;2023-07-16T15:08:50;30.40;60.40
19952;DHT22;10137;49.406;19.484;2023-07-16T15:11:17;30.50;60.10
19952;DHT22;10137;49.406;19.484;2023-07-16T15:13:45;30.50;63.30
19952;DHT22;10137;49.406;19.484;2023-07-16T15:16:12;30.50;66.90
19952;DHT22;10137;49.406;19.484;2023-07-16T15:18:39;30.50;68.60